Airfield :
LOGIN :

Register | Disclaimer

   EN    FR    IT 

 










Legend :    VFR   Marginal VFR   IFR   Intensive IFR   Very Intensive IFR
Visi :
Ceiling :
>= 8 km
>= 3000ft
5 to 8 km
1000 to 3000 ft
1500m to 5 km
500 to 1000 ft
800 to 1500m
200 to 500 ft
< 800m
< 200 ft
Symbols :   Thunderstorms  Fog  Heavy snow  Heavy precipitations  Wind > 20 kt
SIGMETs :     Misc.  Thunderstorms  Icing  Turbulence  Mountain Waves  Volcanic Ashes







- Airport Elevation : 49 ft
- IATA code : GLZ


EHGR - Gilze-Rijen Airbase

CURRENT METAR :
  • 251455Z AUTO 33009KT 250V050 9999 NCD 23/08 Q1025 BLU

EXPIRED METARs :
  • 251431Z AUTO 35009KT 260V060 9999 NCD 23/08 Q1025 BLU RMK CB INFO NOT AVBL
  • 251425Z AUTO 35008KT 300V070 9999 NCD 23/09 Q1025 BLU 35009KT CAVOK RMK CB INFO NOT AVBL
  • 251355Z AUTO 35009KT 230V010 9999 NCD 23/08 Q1025 BLU 35009KT CAVOK
  • 251325Z AUTO 34008KT 250V050 9999 NCD 22/10 Q1025 BLU 35009KT CAVOK
  • 251255Z AUTO 01010KT 280V020 9999 NCD 22/09 Q1025 BLU 35009KT CAVOK
  • 251225Z AUTO 34009KT 270V040 9999 NCD 21/10 Q1025 BLU 35009KT 9999 FEW040

TAF TAF EHGR
Valid from the 25 at 09:00 until the 25 at 21:00 UTC


250733Z 2509/2521 36007KT 9999 BKN016
BECMG 2510/2512 SCT024 36009G19KT
BECMG 2519/2521 35005KT
No reported NOTAMs for that airfield.



MET'MAP, your aeronautical weather chart ! - Copyright ORBIFLY December 2007 - Disclaimer

ORBIFLY MET'MAP TEAM :

Programming & Development : Alexandra Zaïnal
Concept & Development : Baudouin d'Aumeries
Co-Development & Prog : Marc-Olivier Méhu
Technical & hardware support : Manuel Goepfert

Contact : metmap@orbifly.com




SOURCES & CREDITS :

   NOAA